sensor_id;sensor_type;location;lat;lon;timestamp;temperature;humidity
42333;DHT22;27984;51.476;5.702;2023-02-13T00:00:06;7.10;99.90
42333;DHT22;27984;51.476;5.702;2023-02-13T00:02:32;7.10;99.90
42333;DHT22;27984;51.476;5.702;2023-02-13T00:04:57;7.20;99.90
42333;DHT22;27984;51.476;5.702;2023-02-13T00:07:23;7.20;99.90
42333;DHT22;27984;51.476;5.702;2023-02-13T00:09:48;7.20;99.90
42333;DHT22;27984;51.476;5.702;2023-02-13T00:12:14;7.30;99.90
42333;DHT22;27984;51.476;5.702;2023-02-13T00:14:40;7.20;99.90
42333;DHT22;27984;51.476;5.702;2023-02-13T00:17:06;7.20;99.90
42333;DHT22;27984;51.476;5.702;2023-02-13T00:19:31;7.20;99.90
42333;DHT22;27984;51.476;5.702;2023-02-13T00:21:57;7.20;99.90
42333;DHT22;27984;51.476;5.702;2023-02-13T00:24:22;7.20;99.90
42333;DHT22;27984;51.476;5.702;2023-02-13T00:26:48;7.20;99.90
42333;DHT22;27984;51.476;5.702;2023-02-13T00:29:13;7.20;99.90
42333;DHT22;27984;51.476;5.702;2023-02-13T00:31:39;7.20;99.90
42333;DHT22;27984;51.476;5.702;2023-02-13T00:34:04;7.30;99.90
42333;DHT22;27984;51.476;5.702;2023-02-13T00:36:30;7.30;99.90
42333;DHT22;27984;51.476;5.702;2023-02-13T00:38:55;7.30;99.90
42333;DHT22;27984;51.476;5.702;2023-02-13T00:41:21;7.20;99.90
42333;DHT22;27984;51.476;5.702;2023-02-13T00:43:47;7.20;99.90
42333;DHT22;27984;51.476;5.702;2023-02-13T00:46:13;7.20;99.90
42333;DHT22;27984;51.476;5.702;2023-02-13T00:48:38;7.20;99.90
42333;DHT22;27984;51.476;5.702;2023-02-13T00:51:04;7.10;99.90
42333;DHT22;27984;51.476;5.702;2023-02-13T00:53:30;7.20;99.90
42333;DHT22;27984;51.476;5.702;2023-02-13T00:55:55;7.10;99.90
42333;DHT22;27984;51.476;5.702;2023-02-13T00:58:21;7.20;99.90
42333;DHT22;27984;51.476;5.702;2023-02-13T01:00:50;7.20;99.90
42333;DHT22;27984;51.476;5.702;2023-02-13T01:03:16;7.20;99.90
42333;DHT22;27984;51.476;5.702;2023-02-13T01:05:42;7.20;99.90
42333;DHT22;27984;51.476;5.702;2023-02-13T01:08:08;7.20;99.90
42333;DHT22;27984;51.476;5.702;2023-02-13T01:10:35;7.20;99.90
42333;DHT22;27984;51.476;5.702;2023-02-13T01:13:01;7.20;99.90
42333;DHT22;27984;51.476;5.702;2023-02-13T01:15:26;7.20;99.90
42333;DHT22;27984;51.476;5.702;2023-02-13T01:17:52;7.30;99.90
42333;DHT22;27984;51.476;5.702;2023-02-13T01:20:18;7.10;99.90
42333;DHT22;27984;51.476;5.702;2023-02-13T01:22:44;7.10;99.90
42333;DHT22;27984;51.476;5.702;2023-02-13T01:25:09;6.90;99.90
42333;DHT22;27984;51.476;5.702;2023-02-13T01:27:35;6.80;99.90
42333;DHT22;27984;51.476;5.702;2023-02-13T01:30:03;6.80;99.90
42333;DHT22;27984;51.476;5.702;2023-02-13T01:32:29;6.70;99.90
42333;DHT22;27984;51.476;5.702;2023-02-13T01:34:54;6.60;99.90
42333;DHT22;27984;51.476;5.702;2023-02-13T01:37:20;6.50;99.90
42333;DHT22;27984;51.476;5.702;2023-02-13T01:39:45;6.40;99.90
42333;DHT22;27984;51.476;5.702;2023-02-13T01:42:13;6.40;99.90
42333;DHT22;27984;51.476;5.702;2023-02-13T01:44:50;6.20;99.90
42333;DHT22;27984;51.476;5.702;2023-02-13T01:49:53;6.10;99.90
42333;DHT22;27984;51.476;5.702;2023-02-13T01:52:20;6.00;99.90
42333;DHT22;27984;51.476;5.702;2023-02-13T01:54:45;5.90;99.90
42333;DHT22;27984;51.476;5.702;2023-02-13T01:57:15;5.90;99.90
42333;DHT22;27984;51.476;5.702;2023-02-13T01:59:45;5.80;99.90
42333;DHT22;27984;51.476;5.702;2023-02-13T02:02:11;5.80;99.90
42333;DHT22;27984;51.476;5.702;2023-02-13T02:04:37;5.70;99.90
42333;DHT22;27984;51.476;5.702;2023-02-13T02:07:09;5.70;99.90
42333;DHT22;27984;51.476;5.702;2023-02-13T02:09:36;5.70;99.90
42333;DHT22;27984;51.476;5.702;2023-02-13T02:12:08;5.70;99.90
42333;DHT22;27984;51.476;5.702;2023-02-13T02:14:35;5.60;99.90
42333;DHT22;27984;51.476;5.702;2023-02-13T02:17:01;5.60;99.90
42333;DHT22;27984;51.476;5.702;2023-02-13T02:21:55;5.40;99.90
42333;DHT22;27984;51.476;5.702;2023-02-13T02:27:13;5.30;99.90
42333;DHT22;27984;51.476;5.702;2023-02-13T02:29:55;5.30;99.90
42333;DHT22;27984;51.476;5.702;2023-02-13T02:32:46;5.20;99.90
42333;DHT22;27984;51.476;5.702;2023-02-13T02:35:58;5.20;99.90
42333;DHT22;27984;51.476;5.702;2023-02-13T02:38:05;5.20;99.90
42333;DHT22;27984;51.476;5.702;2023-02-13T02:40:36;5.10;99.90
42333;DHT22;27984;51.476;5.702;2023-02-13T02:45:47;5.00;99.90
42333;DHT22;27984;51.476;5.702;2023-02-13T02:51:00;4.90;99.90
42333;DHT22;27984;51.476;5.702;2023-02-13T02:53:32;4.90;99.90
42333;DHT22;27984;51.476;5.702;2023-02-13T02:58:31;4.90;99.90
42333;DHT22;27984;51.476;5.702;2023-02-13T03:01:17;4.90;99.90
42333;DHT22;27984;51.476;5.702;2023-02-13T03:04:02;4.80;99.90
42333;DHT22;27984;51.476;5.702;2023-02-13T03:06:48;4.80;99.90
42333;DHT22;27984;51.476;5.702;2023-02-13T03:09:18;4.70;99.90
42333;DHT22;27984;51.476;5.702;2023-02-13T03:12:03;4.60;99.90
42333;DHT22;27984;51.476;5.702;2023-02-13T03:14:48;4.50;99.90
42333;DHT22;27984;51.476;5.702;2023-02-13T03:17:14;4.50;99.90
42333;DHT22;27984;51.476;5.702;2023-02-13T03:22:45;4.50;99.90
42333;DHT22;27984;51.476;5.702;2023-02-13T03:25:28;4.50;99.90
42333;DHT22;27984;51.476;5.702;2023-02-13T03:28:16;4.40;99.90
42333;DHT22;27984;51.476;5.702;2023-02-13T03:31:19;4.40;99.90
42333;DHT22;27984;51.476;5.702;2023-02-13T03:34:01;4.30;99.90
42333;DHT22;27984;51.476;5.702;2023-02-13T03:46:48;4.20;99.90
42333;DHT22;27984;51.476;5.702;2023-02-13T03:49:20;4.10;99.90
42333;DHT22;27984;51.476;5.702;2023-02-13T03:52:06;4.10;99.90
42333;DHT22;27984;51.476;5.702;2023-02-13T03:54:38;4.10;99.90
42333;DHT22;27984;51.476;5.702;2023-02-13T03:57:23;4.10;99.90
42333;DHT22;27984;51.476;5.702;2023-02-13T04:00:09;4.10;99.90
42333;DHT22;27984;51.476;5.702;2023-02-13T04:02:37;4.10;99.90
42333;DHT22;27984;51.476;5.702;2023-02-13T04:05:06;4.00;99.90
42333;DHT22;27984;51.476;5.702;2023-02-13T04:07:32;4.00;99.90
42333;DHT22;27984;51.476;5.702;2023-02-13T04:10:04;4.00;99.90
42333;DHT22;27984;51.476;5.702;2023-02-13T04:12:34;3.90;99.90
42333;DHT22;27984;51.476;5.702;2023-02-13T04:17:44;4.00;99.90
42333;DHT22;27984;51.476;5.702;2023-02-13T04:20:10;4.00;99.90
42333;DHT22;27984;51.476;5.702;2023-02-13T04:22:43;3.90;99.90
42333;DHT22;27984;51.476;5.702;2023-02-13T04:25:09;3.80;99.90
42333;DHT22;27984;51.476;5.702;2023-02-13T04:27:34;3.70;99.90
42333;DHT22;27984;51.476;5.702;2023-02-13T04:30:00;3.70;99.90
42333;DHT22;27984;51.476;5.702;2023-02-13T04:32:25;3.80;99.90
42333;DHT22;27984;51.476;5.702;2023-02-13T04:34:51;3.70;99.90
42333;DHT22;27984;51.476;5.702;2023-02-13T04:37:19;3.70;99.90
42333;DHT22;27984;51.476;5.702;2023-02-13T04:39:44;3.70;99.90
42333;DHT22;27984;51.476;5.702;2023-02-13T04:42:10;3.60;99.90
42333;DHT22;27984;51.476;5.702;2023-02-13T04:44:35;3.60;99.90
42333;DHT22;27984;51.476;5.702;2023-02-13T04:47:01;3.60;99.90
42333;DHT22;27984;51.476;5.702;2023-02-13T04:49:26;3.50;99.90
42333;DHT22;27984;51.476;5.702;2023-02-13T04:51:51;3.50;99.90
42333;DHT22;27984;51.476;5.702;2023-02-13T04:54:17;3.40;99.90
42333;DHT22;27984;51.476;5.702;2023-02-13T04:56:42;3.50;99.90
42333;DHT22;27984;51.476;5.702;2023-02-13T04:59:08;3.40;99.90
42333;DHT22;27984;51.476;5.702;2023-02-13T05:01:33;3.50;99.90
42333;DHT22;27984;51.476;5.702;2023-02-13T05:03:59;3.50;99.90
42333;DHT22;27984;51.476;5.702;2023-02-13T05:06:24;3.50;99.90
42333;DHT22;27984;51.476;5.702;2023-02-13T05:08:50;3.40;99.90
42333;DHT22;27984;51.476;5.702;2023-02-13T05:11:15;3.40;99.90
42333;DHT22;27984;51.476;5.702;2023-02-13T05:13:40;3.40;99.90
42333;DHT22;27984;51.476;5.702;2023-02-13T05:16:06;3.40;99.90
42333;DHT22;27984;51.476;5.702;2023-02-13T05:18:31;3.40;99.90
42333;DHT22;27984;51.476;5.702;2023-02-13T05:20:57;3.30;99.90
42333;DHT22;27984;51.476;5.702;2023-02-13T05:23:41;3.20;99.90
42333;DHT22;27984;51.476;5.702;2023-02-13T05:26:06;3.30;99.90
42333;DHT22;27984;51.476;5.702;2023-02-13T05:28:31;3.30;99.90
42333;DHT22;27984;51.476;5.702;2023-02-13T05:31:16;3.20;99.90
42333;DHT22;27984;51.476;5.702;2023-02-13T05:33:41;3.20;99.90
42333;DHT22;27984;51.476;5.702;2023-02-13T05:36:06;3.20;99.90
42333;DHT22;27984;51.476;5.702;2023-02-13T05:38:32;3.10;99.90
42333;DHT22;27984;51.476;5.702;2023-02-13T05:41:01;3.10;99.90
42333;DHT22;27984;51.476;5.702;2023-02-13T05:43:27;3.00;99.90
42333;DHT22;27984;51.476;5.702;2023-02-13T05:46:00;3.00;99.90
42333;DHT22;27984;51.476;5.702;2023-02-13T05:48:25;3.00;99.90
42333;DHT22;27984;51.476;5.702;2023-02-13T05:50:51;2.80;99.90
42333;DHT22;27984;51.476;5.702;2023-02-13T05:53:16;2.90;99.90
42333;DHT22;27984;51.476;5.702;2023-02-13T05:55:41;2.80;99.90
42333;DHT22;27984;51.476;5.702;2023-02-13T05:58:07;2.80;99.90
42333;DHT22;27984;51.476;5.702;2023-02-13T06:00:33;2.80;99.90
42333;DHT22;27984;51.476;5.702;2023-02-13T06:02:59;2.80;99.90
42333;DHT22;27984;51.476;5.702;2023-02-13T06:05:24;2.80;99.90
42333;DHT22;27984;51.476;5.702;2023-02-13T06:07:50;2.70;99.90
42333;DHT22;27984;51.476;5.702;2023-02-13T06:10:15;2.70;99.90
42333;DHT22;27984;51.476;5.702;2023-02-13T06:12:41;2.60;99.90
42333;DHT22;27984;51.476;5.702;2023-02-13T06:15:07;2.70;99.90
42333;DHT22;27984;51.476;5.702;2023-02-13T06:17:33;2.60;99.90
42333;DHT22;27984;51.476;5.702;2023-02-13T06:19:58;2.60;99.90
42333;DHT22;27984;51.476;5.702;2023-02-13T06:22:23;2.50;99.90
42333;DHT22;27984;51.476;5.702;2023-02-13T06:24:49;2.60;99.90
42333;DHT22;27984;51.476;5.702;2023-02-13T06:27:14;2.50;99.90
42333;DHT22;27984;51.476;5.702;2023-02-13T06:29:40;2.50;99.90
42333;DHT22;27984;51.476;5.702;2023-02-13T06:32:05;2.50;99.90
42333;DHT22;27984;51.476;5.702;2023-02-13T06:34:31;2.40;99.90
42333;DHT22;27984;51.476;5.702;2023-02-13T06:36:56;2.40;99.90
42333;DHT22;27984;51.476;5.702;2023-02-13T06:39:21;2.40;99.90
42333;DHT22;27984;51.476;5.702;2023-02-13T06:41:47;2.40;99.90
42333;DHT22;27984;51.476;5.702;2023-02-13T06:44:12;2.40;99.90
42333;DHT22;27984;51.476;5.702;2023-02-13T06:46:38;2.40;99.90
42333;DHT22;27984;51.476;5.702;2023-02-13T06:49:03;2.30;99.90
42333;DHT22;27984;51.476;5.702;2023-02-13T06:51:29;2.30;99.90
42333;DHT22;27984;51.476;5.702;2023-02-13T06:53:54;2.20;99.90
42333;DHT22;27984;51.476;5.702;2023-02-13T06:56:19;2.20;99.90
42333;DHT22;27984;51.476;5.702;2023-02-13T06:58:45;2.20;99.90
42333;DHT22;27984;51.476;5.702;2023-02-13T07:01:10;2.20;99.90
42333;DHT22;27984;51.476;5.702;2023-02-13T07:03:36;2.20;99.90
42333;DHT22;27984;51.476;5.702;2023-02-13T07:06:02;2.30;99.90
42333;DHT22;27984;51.476;5.702;2023-02-13T07:08:27;2.30;99.90
42333;DHT22;27984;51.476;5.702;2023-02-13T07:10:53;2.40;99.90
42333;DHT22;27984;51.476;5.702;2023-02-13T07:13:19;2.40;99.90
42333;DHT22;27984;51.476;5.702;2023-02-13T07:15:44;2.40;99.90
42333;DHT22;27984;51.476;5.702;2023-02-13T07:18:09;2.40;99.90
42333;DHT22;27984;51.476;5.702;2023-02-13T07:20:35;2.40;99.90
42333;DHT22;27984;51.476;5.702;2023-02-13T07:23:01;2.40;99.90
42333;DHT22;27984;51.476;5.702;2023-02-13T07:25:27;2.40;99.90
42333;DHT22;27984;51.476;5.702;2023-02-13T07:27:52;2.40;99.90
42333;DHT22;27984;51.476;5.702;2023-02-13T07:30:18;2.40;99.90
42333;DHT22;27984;51.476;5.702;2023-02-13T07:32:43;2.50;99.90
42333;DHT22;27984;51.476;5.702;2023-02-13T07:35:09;2.60;99.90
42333;DHT22;27984;51.476;5.702;2023-02-13T07:37:34;2.60;99.90
42333;DHT22;27984;51.476;5.702;2023-02-13T07:40:00;2.70;99.90
42333;DHT22;27984;51.476;5.702;2023-02-13T07:42:25;2.70;99.90
42333;DHT22;27984;51.476;5.702;2023-02-13T07:44:51;2.80;99.90
42333;DHT22;27984;51.476;5.702;2023-02-13T07:47:16;2.90;99.90
42333;DHT22;27984;51.476;5.702;2023-02-13T07:49:42;3.00;99.90
42333;DHT22;27984;51.476;5.702;2023-02-13T07:52:07;3.20;99.90
42333;DHT22;27984;51.476;5.702;2023-02-13T07:54:33;3.30;99.90
42333;DHT22;27984;51.476;5.702;2023-02-13T07:56:58;3.40;99.90
42333;DHT22;27984;51.476;5.702;2023-02-13T07:59:24;3.50;99.90
42333;DHT22;27984;51.476;5.702;2023-02-13T08:01:49;3.70;99.90
42333;DHT22;27984;51.476;5.702;2023-02-13T08:04:15;3.90;99.90
42333;DHT22;27984;51.476;5.702;2023-02-13T08:06:41;3.90;99.90
42333;DHT22;27984;51.476;5.702;2023-02-13T08:09:06;4.10;99.90
42333;DHT22;27984;51.476;5.702;2023-02-13T08:11:51;4.20;99.90
42333;DHT22;27984;51.476;5.702;2023-02-13T08:14:20;4.40;99.90
42333;DHT22;27984;51.476;5.702;2023-02-13T08:16:46;4.50;99.90
42333;DHT22;27984;51.476;5.702;2023-02-13T08:19:11;4.60;99.90
42333;DHT22;27984;51.476;5.702;2023-02-13T08:21:37;4.80;99.90
42333;DHT22;27984;51.476;5.702;2023-02-13T08:24:05;5.00;99.90
42333;DHT22;27984;51.476;5.702;2023-02-13T08:26:31;5.10;99.90
42333;DHT22;27984;51.476;5.702;2023-02-13T08:28:56;5.10;99.90
42333;DHT22;27984;51.476;5.702;2023-02-13T08:31:21;5.30;99.90
42333;DHT22;27984;51.476;5.702;2023-02-13T08:33:47;5.40;99.90
42333;DHT22;27984;51.476;5.702;2023-02-13T08:36:12;5.60;99.90
42333;DHT22;27984;51.476;5.702;2023-02-13T08:38:38;5.80;99.90
42333;DHT22;27984;51.476;5.702;2023-02-13T08:41:03;5.90;99.90
42333;DHT22;27984;51.476;5.702;2023-02-13T08:43:29;6.10;99.90
42333;DHT22;27984;51.476;5.702;2023-02-13T08:45:57;6.30;99.90
42333;DHT22;27984;51.476;5.702;2023-02-13T08:48:22;6.50;99.90
42333;DHT22;27984;51.476;5.702;2023-02-13T08:50:47;6.70;99.90
42333;DHT22;27984;51.476;5.702;2023-02-13T08:53:13;7.00;99.90
42333;DHT22;27984;51.476;5.702;2023-02-13T08:55:38;7.20;99.90
42333;DHT22;27984;51.476;5.702;2023-02-13T08:58:04;7.30;99.90
42333;DHT22;27984;51.476;5.702;2023-02-13T09:00:29;7.50;99.90
42333;DHT22;27984;51.476;5.702;2023-02-13T09:02:58;7.70;99.90
42333;DHT22;27984;51.476;5.702;2023-02-13T09:05:24;7.90;99.90
42333;DHT22;27984;51.476;5.702;2023-02-13T09:07:49;8.00;99.90
42333;DHT22;27984;51.476;5.702;2023-02-13T09:10:15;8.30;99.90
42333;DHT22;27984;51.476;5.702;2023-02-13T09:12:41;8.50;99.90
42333;DHT22;27984;51.476;5.702;2023-02-13T09:15:06;8.60;99.90
42333;DHT22;27984;51.476;5.702;2023-02-13T09:17:32;8.60;99.90
42333;DHT22;27984;51.476;5.702;2023-02-13T09:19:57;8.90;99.90
42333;DHT22;27984;51.476;5.702;2023-02-13T09:22:25;9.30;99.90
42333;DHT22;27984;51.476;5.702;2023-02-13T09:24:50;9.50;99.90
42333;DHT22;27984;51.476;5.702;2023-02-13T09:27:16;9.60;99.90
42333;DHT22;27984;51.476;5.702;2023-02-13T09:29:41;10.10;99.90
42333;DHT22;27984;51.476;5.702;2023-02-13T09:32:07;10.90;99.90
42333;DHT22;27984;51.476;5.702;2023-02-13T09:34:32;11.70;99.90
42333;DHT22;27984;51.476;5.702;2023-02-13T09:36:58;12.20;99.90
42333;DHT22;27984;51.476;5.702;2023-02-13T09:39:23;12.90;99.90
42333;DHT22;27984;51.476;5.702;2023-02-13T09:41:49;12.70;99.90
42333;DHT22;27984;51.476;5.702;2023-02-13T09:44:35;13.00;99.90
42333;DHT22;27984;51.476;5.702;2023-02-13T09:49:29;14.80;99.90
42333;DHT22;27984;51.476;5.702;2023-02-13T09:51:56;15.40;99.90
42333;DHT22;27984;51.476;5.702;2023-02-13T09:54:22;16.10;99.90
42333;DHT22;27984;51.476;5.702;2023-02-13T09:59:52;16.50;99.90
42333;DHT22;27984;51.476;5.702;2023-02-13T10:07:23;17.00;99.90
42333;DHT22;27984;51.476;5.702;2023-02-13T10:12:36;17.30;99.40
42333;DHT22;27984;51.476;5.702;2023-02-13T10:15:11;17.40;99.70
42333;DHT22;27984;51.476;5.702;2023-02-13T10:17:51;17.80;99.50
42333;DHT22;27984;51.476;5.702;2023-02-13T10:20:24;18.20;98.80
42333;DHT22;27984;51.476;5.702;2023-02-13T10:22:54;18.20;97.70
42333;DHT22;27984;51.476;5.702;2023-02-13T10:25:21;18.90;97.10
42333;DHT22;27984;51.476;5.702;2023-02-13T10:27:59;18.90;96.30
42333;DHT22;27984;51.476;5.702;2023-02-13T10:30:31;18.90;96.10
42333;DHT22;27984;51.476;5.702;2023-02-13T10:33:03;19.50;95.50
42333;DHT22;27984;51.476;5.702;2023-02-13T10:36:29;18.70;95.00
42333;DHT22;27984;51.476;5.702;2023-02-13T10:38:30;18.30;97.00
42333;DHT22;27984;51.476;5.702;2023-02-13T10:41:02;18.90;96.30
42333;DHT22;27984;51.476;5.702;2023-02-13T10:43:29;18.90;96.00
42333;DHT22;27984;51.476;5.702;2023-02-13T10:46:05;18.60;96.20
42333;DHT22;27984;51.476;5.702;2023-02-13T10:51:07;19.40;94.60
42333;DHT22;27984;51.476;5.702;2023-02-13T10:53:50;19.30;96.50
42333;DHT22;27984;51.476;5.702;2023-02-13T10:56:21;19.50;95.40
42333;DHT22;27984;51.476;5.702;2023-02-13T11:01:22;20.00;94.20
42333;DHT22;27984;51.476;5.702;2023-02-13T11:04:00;19.60;94.10
42333;DHT22;27984;51.476;5.702;2023-02-13T11:06:27;20.00;94.70
42333;DHT22;27984;51.476;5.702;2023-02-13T11:08:54;19.90;93.30
42333;DHT22;27984;51.476;5.702;2023-02-13T11:14:09;20.00;93.00
42333;DHT22;27984;51.476;5.702;2023-02-13T11:16:55;20.60;92.40
42333;DHT22;27984;51.476;5.702;2023-02-13T11:21:49;19.80;93.70
42333;DHT22;27984;51.476;5.702;2023-02-13T11:24:18;20.00;93.60
42333;DHT22;27984;51.476;5.702;2023-02-13T11:26:48;20.00;93.30
42333;DHT22;27984;51.476;5.702;2023-02-13T11:29:15;19.80;92.80
42333;DHT22;27984;51.476;5.702;2023-02-13T11:31:42;20.10;93.50
42333;DHT22;27984;51.476;5.702;2023-02-13T11:34:24;19.70;94.10
42333;DHT22;27984;51.476;5.702;2023-02-13T11:36:51;19.60;93.40
42333;DHT22;27984;51.476;5.702;2023-02-13T11:39:17;20.10;92.70
42333;DHT22;27984;51.476;5.702;2023-02-13T11:41:43;20.20;93.40
42333;DHT22;27984;51.476;5.702;2023-02-13T11:44:20;20.40;93.30
42333;DHT22;27984;51.476;5.702;2023-02-13T11:46:48;20.00;92.70
42333;DHT22;27984;51.476;5.702;2023-02-13T11:49:22;20.10;93.30
42333;DHT22;27984;51.476;5.702;2023-02-13T11:51:49;20.50;92.90
42333;DHT22;27984;51.476;5.702;2023-02-13T11:54:22;20.50;93.60
42333;DHT22;27984;51.476;5.702;2023-02-13T11:56:50;20.60;92.80
42333;DHT22;27984;51.476;5.702;2023-02-13T11:59:16;20.40;92.70
42333;DHT22;27984;51.476;5.702;2023-02-13T12:01:42;19.90;92.30
42333;DHT22;27984;51.476;5.702;2023-02-13T12:04:15;19.60;92.80
42333;DHT22;27984;51.476;5.702;2023-02-13T12:06:41;19.70;92.80
42333;DHT22;27984;51.476;5.702;2023-02-13T12:09:21;20.00;92.60
42333;DHT22;27984;51.476;5.702;2023-02-13T12:14:15;20.00;92.00
42333;DHT22;27984;51.476;5.702;2023-02-13T12:16:49;19.70;92.60
42333;DHT22;27984;51.476;5.702;2023-02-13T12:19:17;20.10;92.20
42333;DHT22;27984;51.476;5.702;2023-02-13T12:21:48;20.60;91.70
42333;DHT22;27984;51.476;5.702;2023-02-13T12:27:16;20.50;90.90
42333;DHT22;27984;51.476;5.702;2023-02-13T12:45:32;20.80;90.70
42333;DHT22;27984;51.476;5.702;2023-02-13T12:48:05;20.90;90.70
42333;DHT22;27984;51.476;5.702;2023-02-13T12:50:37;20.60;90.80
42333;DHT22;27984;51.476;5.702;2023-02-13T12:55:41;20.30;90.80
42333;DHT22;27984;51.476;5.702;2023-02-13T13:03:32;20.60;91.70
42333;DHT22;27984;51.476;5.702;2023-02-13T13:11:42;21.60;90.50
42333;DHT22;27984;51.476;5.702;2023-02-13T13:14:19;21.50;90.80
42333;DHT22;27984;51.476;5.702;2023-02-13T13:19:23;21.90;90.60
42333;DHT22;27984;51.476;5.702;2023-02-13T13:22:06;21.70;90.20
42333;DHT22;27984;51.476;5.702;2023-02-13T13:27:29;21.60;90.60
42333;DHT22;27984;51.476;5.702;2023-02-13T13:32:27;21.50;90.40
42333;DHT22;27984;51.476;5.702;2023-02-13T13:34:54;21.30;90.50
42333;DHT22;27984;51.476;5.702;2023-02-13T13:42:33;21.10;90.50
42333;DHT22;27984;51.476;5.702;2023-02-13T13:45:04;21.00;90.00
42333;DHT22;27984;51.476;5.702;2023-02-13T13:47:47;21.50;90.50
42333;DHT22;27984;51.476;5.702;2023-02-13T13:50:19;21.50;89.80
42333;DHT22;27984;51.476;5.702;2023-02-13T14:00:45;20.80;88.70
42333;DHT22;27984;51.476;5.702;2023-02-13T14:03:21;21.00;89.40
42333;DHT22;27984;51.476;5.702;2023-02-13T14:05:57;21.30;88.00
42333;DHT22;27984;51.476;5.702;2023-02-13T14:11:40;20.80;87.60
42333;DHT22;27984;51.476;5.702;2023-02-13T14:16:50;19.20;90.40
42333;DHT22;27984;51.476;5.702;2023-02-13T14:19:29;18.10;92.30
42333;DHT22;27984;51.476;5.702;2023-02-13T14:24:40;16.40;93.10
42333;DHT22;27984;51.476;5.702;2023-02-13T14:27:14;15.80;95.00
42333;DHT22;27984;51.476;5.702;2023-02-13T14:29:45;15.40;96.20
42333;DHT22;27984;51.476;5.702;2023-02-13T14:32:14;15.20;96.80
42333;DHT22;27984;51.476;5.702;2023-02-13T14:34:40;15.00;97.40
42333;DHT22;27984;51.476;5.702;2023-02-13T14:39:34;14.60;98.50
42333;DHT22;27984;51.476;5.702;2023-02-13T14:42:01;14.40;99.10
42333;DHT22;27984;51.476;5.702;2023-02-13T14:44:31;14.20;99.90
42333;DHT22;27984;51.476;5.702;2023-02-13T14:47:02;14.20;99.90
42333;DHT22;27984;51.476;5.702;2023-02-13T14:49:29;14.10;99.90
42333;DHT22;27984;51.476;5.702;2023-02-13T14:51:57;14.00;99.90
42333;DHT22;27984;51.476;5.702;2023-02-13T14:54:34;14.00;99.90
42333;DHT22;27984;51.476;5.702;2023-02-13T14:57:05;14.00;99.90
42333;DHT22;27984;51.476;5.702;2023-02-13T14:59:32;14.00;99.90
42333;DHT22;27984;51.476;5.702;2023-02-13T15:02:08;14.10;99.90
42333;DHT22;27984;51.476;5.702;2023-02-13T15:04:39;14.10;99.90
42333;DHT22;27984;51.476;5.702;2023-02-13T15:07:06;14.00;99.90
42333;DHT22;27984;51.476;5.702;2023-02-13T15:09:38;14.00;99.90
42333;DHT22;27984;51.476;5.702;2023-02-13T15:14:48;13.70;99.90
42333;DHT22;27984;51.476;5.702;2023-02-13T15:17:15;13.60;99.90
42333;DHT22;27984;51.476;5.702;2023-02-13T15:19:45;13.70;99.90
42333;DHT22;27984;51.476;5.702;2023-02-13T15:22:19;13.60;99.90
42333;DHT22;27984;51.476;5.702;2023-02-13T15:24:45;13.60;99.90
42333;DHT22;27984;51.476;5.702;2023-02-13T15:27:15;13.50;99.90
42333;DHT22;27984;51.476;5.702;2023-02-13T15:29:51;13.60;99.90
42333;DHT22;27984;51.476;5.702;2023-02-13T15:32:18;13.50;99.90
42333;DHT22;27984;51.476;5.702;2023-02-13T15:34:45;13.50;99.90
42333;DHT22;27984;51.476;5.702;2023-02-13T15:37:21;13.50;99.90
42333;DHT22;27984;51.476;5.702;2023-02-13T15:39:48;13.40;99.90
42333;DHT22;27984;51.476;5.702;2023-02-13T15:42:13;13.30;99.90
42333;DHT22;27984;51.476;5.702;2023-02-13T15:44:39;13.20;99.90
42333;DHT22;27984;51.476;5.702;2023-02-13T15:47:06;13.30;99.90
42333;DHT22;27984;51.476;5.702;2023-02-13T15:49:36;13.30;99.90
42333;DHT22;27984;51.476;5.702;2023-02-13T15:52:04;13.20;99.90
42333;DHT22;27984;51.476;5.702;2023-02-13T15:54:30;13.20;99.90
42333;DHT22;27984;51.476;5.702;2023-02-13T15:56:57;13.20;99.90
42333;DHT22;27984;51.476;5.702;2023-02-13T15:59:23;13.10;99.90
42333;DHT22;27984;51.476;5.702;2023-02-13T16:01:50;13.10;99.90
42333;DHT22;27984;51.476;5.702;2023-02-13T16:04:16;13.10;99.90
42333;DHT22;27984;51.476;5.702;2023-02-13T16:06:43;13.10;99.90
42333;DHT22;27984;51.476;5.702;2023-02-13T16:11:55;12.80;99.90
42333;DHT22;27984;51.476;5.702;2023-02-13T16:14:21;12.70;99.90
42333;DHT22;27984;51.476;5.702;2023-02-13T16:16:50;12.60;99.90
42333;DHT22;27984;51.476;5.702;2023-02-13T16:19:19;12.60;99.90
42333;DHT22;27984;51.476;5.702;2023-02-13T16:21:46;12.50;99.90
42333;DHT22;27984;51.476;5.702;2023-02-13T16:24:12;12.50;99.90
42333;DHT22;27984;51.476;5.702;2023-02-13T16:26:39;12.40;99.90
42333;DHT22;27984;51.476;5.702;2023-02-13T16:29:12;12.30;99.90
42333;DHT22;27984;51.476;5.702;2023-02-13T16:31:40;12.20;99.90
42333;DHT22;27984;51.476;5.702;2023-02-13T16:34:13;12.10;99.90
42333;DHT22;27984;51.476;5.702;2023-02-13T16:36:38;12.00;99.90
42333;DHT22;27984;51.476;5.702;2023-02-13T16:39:14;11.80;99.90
42333;DHT22;27984;51.476;5.702;2023-02-13T16:41:41;11.80;99.90
42333;DHT22;27984;51.476;5.702;2023-02-13T16:44:20;11.60;99.90
42333;DHT22;27984;51.476;5.702;2023-02-13T16:46:46;11.50;99.90
42333;DHT22;27984;51.476;5.702;2023-02-13T16:49:14;11.40;99.90
42333;DHT22;27984;51.476;5.702;2023-02-13T16:51:45;11.30;99.90
42333;DHT22;27984;51.476;5.702;2023-02-13T16:54:25;11.10;99.90
42333;DHT22;27984;51.476;5.702;2023-02-13T16:56:52;11.00;99.90
42333;DHT22;27984;51.476;5.702;2023-02-13T16:59:20;10.80;99.90
42333;DHT22;27984;51.476;5.702;2023-02-13T17:01:46;10.70;99.90
42333;DHT22;27984;51.476;5.702;2023-02-13T17:04:14;10.60;99.90
42333;DHT22;27984;51.476;5.702;2023-02-13T17:06:42;10.60;99.90
42333;DHT22;27984;51.476;5.702;2023-02-13T17:09:07;10.50;99.90
42333;DHT22;27984;51.476;5.702;2023-02-13T17:11:33;10.40;99.90
42333;DHT22;27984;51.476;5.702;2023-02-13T17:13:58;10.30;99.90
42333;DHT22;27984;51.476;5.702;2023-02-13T17:16:23;10.20;99.90
42333;DHT22;27984;51.476;5.702;2023-02-13T17:18:49;10.20;99.90
42333;DHT22;27984;51.476;5.702;2023-02-13T17:21:14;10.10;99.90
42333;DHT22;27984;51.476;5.702;2023-02-13T17:23:40;10.00;99.90
42333;DHT22;27984;51.476;5.702;2023-02-13T17:26:05;9.90;99.90
42333;DHT22;27984;51.476;5.702;2023-02-13T17:28:31;9.80;99.90
42333;DHT22;27984;51.476;5.702;2023-02-13T17:30:57;9.60;99.90
42333;DHT22;27984;51.476;5.702;2023-02-13T17:33:29;9.50;99.90
42333;DHT22;27984;51.476;5.702;2023-02-13T17:35:56;9.40;99.90
42333;DHT22;27984;51.476;5.702;2023-02-13T17:38:22;9.30;99.90
42333;DHT22;27984;51.476;5.702;2023-02-13T17:40:47;9.20;99.90
42333;DHT22;27984;51.476;5.702;2023-02-13T17:43:14;9.20;99.90
42333;DHT22;27984;51.476;5.702;2023-02-13T17:45:40;9.10;99.90
42333;DHT22;27984;51.476;5.702;2023-02-13T17:48:06;9.00;99.90
42333;DHT22;27984;51.476;5.702;2023-02-13T17:50:32;9.00;99.90
42333;DHT22;27984;51.476;5.702;2023-02-13T17:53:05;9.00;99.90
42333;DHT22;27984;51.476;5.702;2023-02-13T17:55:31;8.90;99.90